createdAt,value
2022-12-23T00:01:22.965Z,349.00
2022-12-23T00:03:49.844Z,373.63
2022-12-23T00:06:18.318Z,252.88
2022-12-23T00:08:45.205Z,165.38
2022-12-23T00:11:21.033Z,235.50
2022-12-23T00:14:26.319Z,452.88
2022-12-23T00:16:53.336Z,350.25
2022-12-23T00:19:20.143Z,240.27
2022-12-23T00:21:48.431Z,186.75
2022-12-23T00:24:15.305Z,205.82
2022-12-23T00:26:42.006Z,161.73
2022-12-23T00:29:08.809Z,287.75
2022-12-23T00:31:35.580Z,203.75
2022-12-23T00:34:02.349Z,162.95
2022-12-23T00:36:30.433Z,172.10
2022-12-23T00:39:18.388Z,205.15
2022-12-23T00:42:04.065Z,234.50
2022-12-23T00:44:31.206Z,205.80
2022-12-23T00:46:58.074Z,250.82
2022-12-23T00:49:43.168Z,163.50
2022-12-23T00:52:12.968Z,169.05
2022-12-23T00:54:39.756Z,281.73
2022-12-23T00:57:06.636Z,170.27
2022-12-23T00:59:34.175Z,207.88
2022-12-23T01:02:19.487Z,271.77
2022-12-23T01:05:04.926Z,180.80
2022-12-23T01:07:31.717Z,149.68
2022-12-23T01:09:58.498Z,117.65
2022-12-23T01:12:25.209Z,194.63
2022-12-23T01:14:51.962Z,368.40
2022-12-23T01:17:18.864Z,247.45
2022-12-23T01:19:45.661Z,196.35
2022-12-23T01:22:12.466Z,331.05
2022-12-23T01:24:39.195Z,177.40
2022-12-23T01:27:05.915Z,128.02
2022-12-23T01:29:32.813Z,431.13
2022-12-23T01:31:59.520Z,222.07
2022-12-23T01:34:31.079Z,220.02
2022-12-23T01:37:01.236Z,185.38
2022-12-23T01:39:27.909Z,193.60
2022-12-23T01:42:13.525Z,188.30
2022-12-23T01:44:51.590Z,267.38
2022-12-23T01:47:39.668Z,100.55
2022-12-23T01:50:14.198Z,51.47
2022-12-23T01:52:47.866Z,54.95
2022-12-23T01:55:19.293Z,41.70
2022-12-23T01:57:47.094Z,48.10
2022-12-23T02:00:33.555Z,52.60
2022-12-23T02:03:18.947Z,56.47
2022-12-23T02:05:46.950Z,62.33
2022-12-23T02:08:34.384Z,55.85
2022-12-23T02:11:45.889Z,35.17
2022-12-23T02:14:52.019Z,48.03
2022-12-23T02:17:26.745Z,56.08
2022-12-23T02:20:21.605Z,45.47
2022-12-23T02:23:09.864Z,55.67
2022-12-23T02:25:39.240Z,74.30
2022-12-23T02:28:28.903Z,54.28
2022-12-23T02:31:09.641Z,92.80
2022-12-23T02:33:48.518Z,75.22
2022-12-23T02:36:33.885Z,81.13
2022-12-23T02:39:07.993Z,73.80
2022-12-23T02:41:54.647Z,63.92
2022-12-23T02:44:34.260Z,92.93
2022-12-23T02:47:05.863Z,86.05
2022-12-23T02:49:36.518Z,86.38
2022-12-23T02:52:07.642Z,143.77
2022-12-23T02:54:41.901Z,100.07
2022-12-23T02:57:11.556Z,168.20
2022-12-23T02:59:46.210Z,207.18
2022-12-23T03:02:13.780Z,221.63
2022-12-23T03:04:42.204Z,241.95
2022-12-23T03:07:18.973Z,217.88
2022-12-23T03:10:03.960Z,135.55
2022-12-23T03:12:49.441Z,118.15
2022-12-23T03:15:29.443Z,281.63
2022-12-23T03:17:59.233Z,222.82
2022-12-23T03:20:35.266Z,236.40
2022-12-23T03:23:05.891Z,169.10
2022-12-23T03:25:42.413Z,305.73
2022-12-23T03:28:18.995Z,167.45
2022-12-23T03:30:51.318Z,304.38
2022-12-23T03:33:25.058Z,419.95
2022-12-23T03:35:56.762Z,237.10
2022-12-23T03:38:25.158Z,291.27
2022-12-23T03:40:58.654Z,224.45
2022-12-23T03:43:30.761Z,261.35
2022-12-23T03:46:03.316Z,133.05
2022-12-23T03:48:38.765Z,140.93
2022-12-23T03:51:20.119Z,279.05
2022-12-23T03:53:51.874Z,222.93
2022-12-23T03:56:34.316Z,307.52
2022-12-23T03:59:09.639Z,338.75
2022-12-23T04:01:54.265Z,346.17
2022-12-23T04:04:27.767Z,243.73
2022-12-23T04:07:03.642Z,178.55
2022-12-23T04:09:30.448Z,145.40
2022-12-23T04:11:58.594Z,124.10
2022-12-23T04:14:25.300Z,119.82
2022-12-23T04:16:56.359Z,175.85
2022-12-23T04:19:23.082Z,108.28
2022-12-23T04:21:50.031Z,235.70
2022-12-23T04:24:16.937Z,104.30
2022-12-23T04:26:43.633Z,195.73
2022-12-23T04:29:10.379Z,59.75
2022-12-23T04:31:37.163Z,93.55
2022-12-23T04:34:03.884Z,88.68
2022-12-23T04:36:30.767Z,85.47
2022-12-23T04:38:57.453Z,70.25
2022-12-23T04:41:24.425Z,78.35
2022-12-23T04:43:53.291Z,45.88
2022-12-23T04:46:20.724Z,56.80
2022-12-23T04:51:14.233Z,57.78
2022-12-23T04:53:40.926Z,42.47
2022-12-23T04:56:07.738Z,28.23
2022-12-23T04:58:34.514Z,28.35
2022-12-23T05:01:05.514Z,29.42
2022-12-23T05:03:32.372Z,40.50
2022-12-23T05:05:59.306Z,42.15
2022-12-23T05:08:26.137Z,35.90
2022-12-23T05:10:52.839Z,57.22
2022-12-23T05:13:19.604Z,57.92
2022-12-23T05:15:48.775Z,56.40
2022-12-23T05:18:16.604Z,53.38
2022-12-23T05:20:43.817Z,60.55
2022-12-23T05:25:38.293Z,63.55
2022-12-23T05:28:08.048Z,52.75
2022-12-23T05:30:34.963Z,195.43
2022-12-23T05:33:01.905Z,61.45
2022-12-23T05:35:28.857Z,39.70
2022-12-23T05:37:55.577Z,49.40
2022-12-23T05:40:24.508Z,53.05
2022-12-23T05:42:55.458Z,50.72
2022-12-23T05:45:22.483Z,57.00
2022-12-23T05:47:49.166Z,50.22
2022-12-23T05:50:15.886Z,45.38
2022-12-23T05:52:42.593Z,57.55
2022-12-23T05:55:09.603Z,50.00
2022-12-23T05:57:36.297Z,59.03
2022-12-23T06:00:04.385Z,55.38
2022-12-23T06:02:39.294Z,65.43
2022-12-23T06:05:07.011Z,54.17
2022-12-23T06:07:33.719Z,54.42
2022-12-23T06:10:00.550Z,52.70
2022-12-23T06:12:27.279Z,58.28
2022-12-23T06:14:54.065Z,56.13
2022-12-23T06:17:20.811Z,54.45
2022-12-23T06:19:47.597Z,52.80
2022-12-23T06:22:15.093Z,58.78
2022-12-23T06:24:41.786Z,59.10
2022-12-23T06:27:08.522Z,55.17
2022-12-23T06:29:35.259Z,53.63
2022-12-23T06:32:02.152Z,59.85
2022-12-23T06:34:28.984Z,59.33
2022-12-23T06:36:55.698Z,51.75
2022-12-23T06:39:22.794Z,48.35
2022-12-23T06:41:49.761Z,52.63
2022-12-23T06:44:16.663Z,60.95
2022-12-23T06:46:43.353Z,56.85
2022-12-23T06:49:13.444Z,71.35
2022-12-23T06:51:41.069Z,58.67
2022-12-23T06:54:14.546Z,59.25
2022-12-23T06:56:41.246Z,58.05
2022-12-23T06:59:07.982Z,55.08
2022-12-23T07:01:34.818Z,50.78
2022-12-23T07:04:02.038Z,65.88
2022-12-23T07:06:29.254Z,91.25
2022-12-23T07:11:22.672Z,56.22
2022-12-23T07:13:49.397Z,57.45
2022-12-23T07:16:16.170Z,57.53
2022-12-23T07:18:42.918Z,59.60
2022-12-23T07:21:18.788Z,70.45
2022-12-23T07:23:51.498Z,64.43
2022-12-23T07:26:18.229Z,63.63
2022-12-23T07:28:47.832Z,62.42
2022-12-23T07:31:15.148Z,47.20
2022-12-23T07:33:42.238Z,59.85
2022-12-23T07:36:09.278Z,56.13
2022-12-23T07:38:35.973Z,71.57
2022-12-23T07:41:02.672Z,63.95
2022-12-23T07:43:29.429Z,64.88
2022-12-23T07:46:00.433Z,47.00
2022-12-23T07:48:27.936Z,44.20
2022-12-23T07:51:04.042Z,20.45
2022-12-23T07:53:30.970Z,33.35
2022-12-23T07:55:58.422Z,45.13
2022-12-23T07:58:25.589Z,37.83
2022-12-23T08:01:00.788Z,54.55
2022-12-23T08:03:28.140Z,340.10
2022-12-23T08:06:09.448Z,76.45
2022-12-23T08:09:01.115Z,63.78
2022-12-23T08:11:30.566Z,68.07
2022-12-23T08:13:57.435Z,59.65
2022-12-23T08:16:24.644Z,52.08
2022-12-23T08:18:51.766Z,62.33
2022-12-23T08:21:20.089Z,52.55
2022-12-23T08:23:47.601Z,55.95
2022-12-23T08:26:17.114Z,51.55
2022-12-23T08:28:45.921Z,51.47
2022-12-23T08:31:28.578Z,53.10
2022-12-23T08:34:00.472Z,61.83
2022-12-23T08:36:32.692Z,53.13
2022-12-23T08:39:10.329Z,58.47
2022-12-23T08:44:53.492Z,45.60
2022-12-23T08:47:21.953Z,37.72
2022-12-23T08:49:51.032Z,38.53
2022-12-23T08:52:18.466Z,38.53
2022-12-23T08:54:46.515Z,36.92
2022-12-23T08:57:14.209Z,33.78
2022-12-23T08:59:44.974Z,24.25
2022-12-23T09:02:12.035Z,22.77
2022-12-23T09:04:39.082Z,18.50
2022-12-23T09:07:06.096Z,21.85
2022-12-23T09:09:33.001Z,21.85
2022-12-23T09:11:59.756Z,27.30
2022-12-23T09:14:26.452Z,19.00
2022-12-23T09:16:53.175Z,22.05
2022-12-23T09:19:20.445Z,21.10
2022-12-23T09:21:47.907Z,17.83
2022-12-23T09:24:14.607Z,18.67
2022-12-23T09:26:41.536Z,20.52
2022-12-23T09:29:08.304Z,22.55
2022-12-23T09:31:37.692Z,20.45
2022-12-23T09:34:06.770Z,17.23
2022-12-23T09:36:34.864Z,18.15
2022-12-23T09:39:04.454Z,19.08
2022-12-23T09:44:38.981Z,17.38
2022-12-23T09:47:13.031Z,17.08
2022-12-23T09:49:47.449Z,18.10
2022-12-23T09:52:20.795Z,23.10
2022-12-23T09:54:52.493Z,19.42
2022-12-23T09:57:42.098Z,20.13
2022-12-23T10:00:14.083Z,16.35
2022-12-23T10:02:56.263Z,14.27
2022-12-23T10:05:41.407Z,13.98
2022-12-23T10:08:12.286Z,16.55
2022-12-23T10:11:05.744Z,15.95
2022-12-23T10:13:37.762Z,16.90
2022-12-23T10:16:09.678Z,15.10
2022-12-23T10:18:51.493Z,18.40
2022-12-23T10:21:26.657Z,14.15
2022-12-23T10:23:55.287Z,16.63
2022-12-23T10:26:32.352Z,18.58
2022-12-23T10:29:08.301Z,19.20
2022-12-23T10:31:50.433Z,16.10
2022-12-23T10:34:26.964Z,12.98
2022-12-23T10:36:59.195Z,14.93
2022-12-23T10:39:51.447Z,13.30
2022-12-23T10:42:56.313Z,14.48
2022-12-23T10:45:59.410Z,17.20
2022-12-23T10:48:55.130Z,14.13
2022-12-23T10:51:55.837Z,14.18
2022-12-23T10:54:36.930Z,13.55
2022-12-23T10:57:05.621Z,13.93
2022-12-23T10:59:34.037Z,15.50
2022-12-23T11:02:19.485Z,13.50
2022-12-23T11:04:48.980Z,11.60
2022-12-23T11:10:17.737Z,9.93
2022-12-23T11:12:53.099Z,11.75
2022-12-23T11:15:35.195Z,9.88
2022-12-23T11:18:16.787Z,8.77
2022-12-23T11:20:46.516Z,9.30
2022-12-23T11:23:27.605Z,10.23
2022-12-23T11:26:10.293Z,10.75
2022-12-23T11:28:51.165Z,8.88
2022-12-23T11:31:27.247Z,10.23
2022-12-23T11:34:01.733Z,8.55
2022-12-23T11:36:30.682Z,10.00
2022-12-23T11:39:10.578Z,10.52
2022-12-23T11:42:06.224Z,14.93
2022-12-23T11:44:41.633Z,11.63
2022-12-23T11:47:21.755Z,9.73
2022-12-23T11:50:00.242Z,10.77
2022-12-23T11:52:31.207Z,9.93
2022-12-23T11:55:00.645Z,8.35
2022-12-23T11:57:33.204Z,9.07
2022-12-23T12:00:06.256Z,7.93
2022-12-23T12:02:55.052Z,8.63
2022-12-23T12:05:33.662Z,9.15
2022-12-23T12:08:03.721Z,9.82
2022-12-23T12:10:34.058Z,8.82
2022-12-23T12:13:07.608Z,8.35
2022-12-23T12:15:50.407Z,7.15
2022-12-23T12:18:19.674Z,8.20
2022-12-23T12:20:51.675Z,10.95
2022-12-23T12:23:27.720Z,7.82
2022-12-23T12:26:04.812Z,7.78
2022-12-23T12:28:41.533Z,9.07
2022-12-23T12:31:24.666Z,9.20
2022-12-23T12:34:05.159Z,8.82
2022-12-23T12:36:48.509Z,9.45
2022-12-23T12:39:43.317Z,9.18
2022-12-23T12:42:41.045Z,9.10
2022-12-23T12:45:20.649Z,9.52
2022-12-23T12:47:57.048Z,7.70
2022-12-23T12:53:04.051Z,11.88
2022-12-23T12:55:39.742Z,13.82
2022-12-23T12:58:18.625Z,10.68
2022-12-23T13:01:15.128Z,11.65
2022-12-23T13:03:50.588Z,11.95
2022-12-23T13:06:22.890Z,10.50
2022-12-23T13:09:01.430Z,11.40
2022-12-23T13:12:00.242Z,13.85
2022-12-23T13:17:22.878Z,14.60
2022-12-23T13:20:17.029Z,18.02
2022-12-23T13:22:46.089Z,15.23
2022-12-23T13:25:19.908Z,15.88
2022-12-23T13:27:57.202Z,15.13
2022-12-23T13:30:28.744Z,12.65
2022-12-23T13:33:49.552Z,10.77
2022-12-23T13:36:32.072Z,10.10
2022-12-23T13:39:05.604Z,10.20
2022-12-23T13:41:51.687Z,11.02
2022-12-23T13:44:20.734Z,9.55
2022-12-23T13:47:14.093Z,10.65
2022-12-23T13:49:40.742Z,11.88
2022-12-23T13:52:11.957Z,14.45
2022-12-23T13:55:14.652Z,15.40
2022-12-23T13:58:06.308Z,10.98
2022-12-23T14:00:34.498Z,9.50
2022-12-23T14:03:01.192Z,11.32
2022-12-23T14:05:34.568Z,13.05
2022-12-23T14:08:22.794Z,12.23
2022-12-23T14:13:40.066Z,10.52
2022-12-23T14:16:22.645Z,8.65
2022-12-23T14:19:30.439Z,8.90
2022-12-23T14:22:09.205Z,8.70
2022-12-23T14:25:11.562Z,9.60
2022-12-23T14:28:07.570Z,10.98
2022-12-23T14:30:37.406Z,9.10
2022-12-23T14:33:23.729Z,9.55
2022-12-23T14:35:51.867Z,8.98
2022-12-23T14:38:24.347Z,10.13
2022-12-23T14:40:54.030Z,10.98
2022-12-23T14:43:26.662Z,9.52
2022-12-23T14:46:01.736Z,110.97
2022-12-23T14:48:34.658Z,13.55
2022-12-23T14:51:08.360Z,157.13
2022-12-23T14:53:37.617Z,60.17
2022-12-23T14:56:22.837Z,22.92
2022-12-23T14:58:52.698Z,23.83
2022-12-23T15:01:54.008Z,23.80
2022-12-23T15:04:37.281Z,23.60
2022-12-23T15:07:07.805Z,356.60
2022-12-23T15:10:00.779Z,45.28
2022-12-23T15:12:40.499Z,20.65
2022-12-23T15:15:29.058Z,24.25
2022-12-23T15:18:03.333Z,20.67
2022-12-23T15:20:30.159Z,21.77
2022-12-23T15:23:00.842Z,13.00
2022-12-23T15:25:30.011Z,10.90
2022-12-23T15:28:01.967Z,15.63
2022-12-23T15:30:34.580Z,14.23
2022-12-23T15:33:28.249Z,9.48
2022-12-23T15:35:56.045Z,14.38
2022-12-23T15:38:29.336Z,36.08
2022-12-23T15:41:13.721Z,24.33
2022-12-23T15:43:42.646Z,23.58
2022-12-23T15:46:17.479Z,18.83
2022-12-23T15:48:46.333Z,21.85
2022-12-23T15:54:31.717Z,14.35
2022-12-23T15:57:00.337Z,12.15
2022-12-23T15:59:38.639Z,22.33
2022-12-23T16:02:32.494Z,20.65
2022-12-23T16:05:00.681Z,20.00
2022-12-23T16:07:39.240Z,20.23
2022-12-23T16:10:16.109Z,14.10
2022-12-23T16:12:43.828Z,17.77
2022-12-23T16:15:28.658Z,27.65
2022-12-23T16:18:21.911Z,21.83
2022-12-23T16:20:59.665Z,18.98
2022-12-23T16:23:30.218Z,20.48
2022-12-23T16:26:00.225Z,19.48
2022-12-23T16:28:31.128Z,20.02
2022-12-23T16:30:58.441Z,18.98
2022-12-23T16:33:34.456Z,16.73
2022-12-23T16:36:16.834Z,16.27
2022-12-23T16:38:44.009Z,15.43
2022-12-23T16:41:10.681Z,22.25
2022-12-23T16:43:37.642Z,18.33
2022-12-23T16:46:05.142Z,13.05
2022-12-23T16:48:41.366Z,14.75
2022-12-23T16:51:12.765Z,17.33
2022-12-23T16:53:40.143Z,17.35
2022-12-23T16:56:15.008Z,15.88
2022-12-23T16:58:42.577Z,14.60
2022-12-23T17:01:21.908Z,29.60
2022-12-23T17:03:49.038Z,16.30
2022-12-23T17:06:16.857Z,40.28
2022-12-23T17:08:43.929Z,30.38
2022-12-23T17:11:21.205Z,24.23
2022-12-23T17:13:47.919Z,20.63
2022-12-23T17:18:42.598Z,17.92
2022-12-23T17:21:30.562Z,17.60
2022-12-23T17:24:25.726Z,20.35
2022-12-23T17:26:53.859Z,19.42
2022-12-23T17:29:20.789Z,14.73
2022-12-23T17:31:48.493Z,14.95
2022-12-23T17:34:18.006Z,25.23
2022-12-23T17:36:49.950Z,19.23
2022-12-23T17:39:18.069Z,15.57
2022-12-23T17:41:44.860Z,15.65
2022-12-23T17:44:14.400Z,30.38
2022-12-23T17:46:41.377Z,29.88
2022-12-23T17:49:08.595Z,26.75
2022-12-23T17:51:35.615Z,25.05
2022-12-23T17:54:04.509Z,26.55
2022-12-23T17:56:31.332Z,23.27
2022-12-23T17:58:58.845Z,17.83
2022-12-23T18:01:28.442Z,45.28
2022-12-23T18:03:57.282Z,42.47
2022-12-23T18:06:25.767Z,30.63
2022-12-23T18:08:52.573Z,29.20
2022-12-23T18:11:23.474Z,24.55
2022-12-23T18:13:52.818Z,24.80
2022-12-23T18:16:19.589Z,26.25
2022-12-23T18:18:47.195Z,42.13
2022-12-23T18:21:20.947Z,57.67
2022-12-23T18:23:47.811Z,60.55
2022-12-23T18:26:17.515Z,37.00
2022-12-23T18:28:44.920Z,38.97
2022-12-23T18:31:21.084Z,30.13
2022-12-23T18:33:48.546Z,27.30
2022-12-23T18:36:22.750Z,31.00
2022-12-23T18:38:50.001Z,30.45
2022-12-23T18:43:43.325Z,20.85
2022-12-23T18:46:10.099Z,24.80
2022-12-23T18:48:36.880Z,23.95
2022-12-23T18:51:03.722Z,23.63
2022-12-23T18:53:30.456Z,24.65
2022-12-23T18:55:57.197Z,26.35
2022-12-23T18:58:24.564Z,28.45
2022-12-23T19:00:53.142Z,34.22
2022-12-23T19:03:29.028Z,32.95
2022-12-23T19:05:56.755Z,31.77
2022-12-23T19:08:27.415Z,37.05
2022-12-23T19:10:55.195Z,33.70
2022-12-23T19:15:48.910Z,34.22
2022-12-23T19:20:45.076Z,33.58
2022-12-23T19:23:12.991Z,31.15
2022-12-23T19:25:52.646Z,32.47
2022-12-23T19:28:21.979Z,31.05
2022-12-23T19:30:48.906Z,40.13
2022-12-23T19:33:15.842Z,34.92
2022-12-23T19:35:43.822Z,36.15
2022-12-23T19:38:12.372Z,45.97
2022-12-23T19:40:40.023Z,41.58
2022-12-23T19:43:07.189Z,48.38
2022-12-23T19:48:00.688Z,148.25
2022-12-23T19:50:28.227Z,52.17
2022-12-23T19:52:56.481Z,81.57
2022-12-23T19:55:24.142Z,32.22
2022-12-23T19:57:51.815Z,37.75
2022-12-23T20:00:18.649Z,30.10
2022-12-23T20:02:45.401Z,36.67
2022-12-23T20:05:12.140Z,37.60
2022-12-23T20:07:38.949Z,38.97
2022-12-23T20:10:06.578Z,46.35
2022-12-23T20:12:33.459Z,41.72
2022-12-23T20:15:00.303Z,35.50
2022-12-23T20:17:27.009Z,37.40
2022-12-23T20:19:53.688Z,37.72
2022-12-23T20:22:20.392Z,66.80
2022-12-23T20:24:47.304Z,49.58
2022-12-23T20:27:16.157Z,35.13
2022-12-23T20:29:43.342Z,38.50
2022-12-23T20:32:10.610Z,41.13
2022-12-23T20:34:39.998Z,37.88
2022-12-23T20:37:07.829Z,50.55
2022-12-23T20:39:34.991Z,36.97
2022-12-23T20:42:01.747Z,36.85
2022-12-23T20:44:37.279Z,43.00
2022-12-23T20:47:06.075Z,42.03
2022-12-23T20:49:33.616Z,44.08
2022-12-23T20:52:00.454Z,36.85
2022-12-23T20:54:32.669Z,36.35
2022-12-23T20:57:00.405Z,37.22
2022-12-23T20:59:27.139Z,53.10
2022-12-23T21:01:53.910Z,35.85
2022-12-23T21:04:20.920Z,42.20
2022-12-23T21:06:47.739Z,31.63
2022-12-23T21:09:16.012Z,34.75
2022-12-23T21:11:46.123Z,35.85
2022-12-23T21:14:14.493Z,32.70
2022-12-23T21:16:42.324Z,30.77
2022-12-23T21:19:14.219Z,30.50
2022-12-23T21:21:40.994Z,29.95
2022-12-23T21:24:07.884Z,28.00
2022-12-23T21:26:35.535Z,27.33
2022-12-23T21:29:04.983Z,30.35
2022-12-23T21:31:33.767Z,34.63
2022-12-23T21:34:00.863Z,33.90
2022-12-23T21:36:33.411Z,33.10
2022-12-23T21:39:00.873Z,36.75
2022-12-23T21:41:30.192Z,45.30
2022-12-23T21:43:58.563Z,29.83
2022-12-23T21:46:26.234Z,37.97
2022-12-23T21:48:53.441Z,34.22
2022-12-23T21:56:24.563Z,33.80
2022-12-23T21:59:03.270Z,34.78
2022-12-23T22:01:31.393Z,33.75
2022-12-23T22:03:58.747Z,31.42
2022-12-23T22:06:28.892Z,39.65
2022-12-23T22:08:56.853Z,73.55
2022-12-23T22:11:26.958Z,41.67
2022-12-23T22:13:56.520Z,41.38
2022-12-23T22:16:25.702Z,33.60
2022-12-23T22:18:55.594Z,30.55
2022-12-23T22:21:24.717Z,33.63
2022-12-23T22:23:53.606Z,36.10
2022-12-23T22:26:26.407Z,37.78
2022-12-23T22:28:55.410Z,39.38
2022-12-23T22:31:34.191Z,75.85
2022-12-23T22:34:01.497Z,37.25
2022-12-23T22:38:57.824Z,32.67
2022-12-23T22:41:25.821Z,25.77
2022-12-23T22:43:52.576Z,35.65
2022-12-23T22:46:19.477Z,33.75
2022-12-23T22:48:46.303Z,32.95
2022-12-23T22:51:18.764Z,35.78
2022-12-23T22:53:45.921Z,35.38
2022-12-23T22:56:14.866Z,41.42
2022-12-23T22:58:42.201Z,35.95
2022-12-23T23:01:25.480Z,39.35
2022-12-23T23:03:57.386Z,35.80
2022-12-23T23:06:32.828Z,42.70
2022-12-23T23:08:59.926Z,37.20
2022-12-23T23:11:28.054Z,35.08
2022-12-23T23:13:55.357Z,37.88
2022-12-23T23:16:22.758Z,37.35
2022-12-23T23:18:50.791Z,35.58
2022-12-23T23:21:17.805Z,36.17
2022-12-23T23:23:44.769Z,39.38
2022-12-23T23:26:11.664Z,36.67
2022-12-23T23:28:39.547Z,40.50
2022-12-23T23:31:40.450Z,36.60
2022-12-23T23:33:54.060Z,43.50
2022-12-23T23:36:20.819Z,38.30
2022-12-23T23:38:47.561Z,37.72
2022-12-23T23:41:20.509Z,41.78
2022-12-23T23:43:49.490Z,36.38
2022-12-23T23:46:16.241Z,39.95
2022-12-23T23:48:42.995Z,32.17
2022-12-23T23:51:09.845Z,35.17
2022-12-23T23:53:36.646Z,36.67
2022-12-23T23:56:07.880Z,33.42
2022-12-23T23:58:36.292Z,35.83
